Meteo Giornale » Osservazioni meteo Gran Bretagna » Biggin Hill

ore: 21:50 - Osservazioni Meteo Biggin Hill
Lat. 51° 19' N Lon. 0° 2' E Alt. 183 metri s.l.m.

sereno Europe/London

12 °C

Sereno

Temp. 24 Ore

8 °C

19 °C

Est/Sud-Est

7.4 Km/h

Dew point 8 °C

Umidità 76 %

Visibilità  7 Km

Il sole sorge alle ore 06:15

Il sole tramonta alle ore 19:47

Data e Ora Cielo e Fenomeni T °C DP °C Um. % Pres. hPa Vis. km Vento km/h
Oggi h: 21:50 sereno Sereno 12 8 76 1024 7 E/SE 7.4
Oggi h: 21:20 sereno Sereno 12 8 76 1024 7 N 5.5
Oggi h: 20:50 sereno Sereno 12 8 76 1024 7 NE 7.4
Oggi h: 20:20 sereno Sereno 13 8 71 1024 7 E/NE 7.4
Oggi h: 19:50 sereno Sereno 13 8 71 1023 7 E 7.4
Oggi h: 19:20 sereno Sereno 14 9 71 1023 8 E/NE 9.3
Oggi h: 18:50 sereno Sereno 16 10 67 1023 9 NE 9.3
Oggi h: 18:20 sereno Sereno 16 9 63 1023 9 E/NE 11.1
Oggi h: 17:50 sereno Sereno 17 9 59 1023 9 NE 13
Oggi h: 16:50 sereno Sereno 18 10 59 1023 9 NE 14.8
Oggi h: 15:50 sereno Sereno 19 10 55 1023 9 N/NE 13
Oggi h: 15:20 sereno Sereno 19 10 55 1024 9 N/NE 11.1
Oggi h: 14:50 sereno Sereno 18 10 59 1024 10 NE 13
Oggi h: 14:20 sereno Sereno 18 9 55 1024 10 NE 14.8
Oggi h: 13:50 sereno Sereno 18 10 59 1024 9 E/NE 13
Oggi h: 13:20 sereno Sereno 18 9 55 1024 10 E/NE 13
Oggi h: 12:50 sereno Sereno 19 11 59 1024 10 E/NE 14.8
Oggi h: 12:20 sereno Sereno 18 10 59 1024 10 E 16.7
Oggi h: 11:50 sereno Sereno 18 10 59 1025 10 E/NE 14.8
Oggi h: 11:20 sereno Sereno 16 9 63 1025 10 E 16.7
Oggi h: 10:50 sereno Sereno 15 8 62 1025 10 NE 14.8
Oggi h: 10:20 sereno Sereno 15 8 62 1025 10 E/NE 14.8
Oggi h: 09:50 sereno Sereno 14 7 62 1025 9 NE 13
Oggi h: 09:20 sereno Sereno 12 8 76 1025 9 E/NE 9.3
Oggi h: 08:50 sereno Sereno 11 7 76 1025 8 NE 9.3
Oggi h: 08:20 sereno Sereno 11 7 76 1025 8 N 3.7
Oggi h: 07:50 sereno Sereno 8 6 87 1025 6 E 7.4
Oggi h: 07:20 sereno Sereno 8 6 87 1025 7 N 3.7
Oggi h: 06:50 sereno Sereno 8 6 87 1025 6 N 5.5
Oggi h: 06:20 sereno Sereno 8 6 87 1025 6 N 5.5